createdAt,value
2023-02-22T00:00:34.024Z,5.54
2023-02-22T00:01:34.016Z,5.51
2023-02-22T00:02:34.006Z,5.47
2023-02-22T00:03:34.006Z,5.47
2023-02-22T00:04:33.974Z,5.43
2023-02-22T00:05:33.968Z,5.43
2023-02-22T00:06:33.958Z,5.43
2023-02-22T00:07:33.940Z,5.36
2023-02-22T00:08:33.939Z,5.18
2023-02-22T00:09:33.930Z,5.08
2023-02-22T00:10:33.902Z,5.08
2023-02-22T00:11:33.886Z,5.07
2023-02-22T00:12:33.876Z,4.97
2023-02-22T00:13:33.896Z,4.94
2023-02-22T00:14:33.855Z,4.93
2023-02-22T00:15:33.834Z,4.97
2023-02-22T00:16:33.881Z,4.97
2023-02-22T00:17:33.810Z,4.93
2023-02-22T00:18:33.807Z,4.97
2023-02-22T00:19:33.782Z,4.97
2023-02-22T00:20:33.776Z,4.99
2023-02-22T00:21:33.763Z,4.94
2023-02-22T00:22:33.753Z,5.00
2023-02-22T00:23:33.743Z,4.99
2023-02-22T00:24:33.718Z,5.10
2023-02-22T00:25:33.714Z,5.04
2023-02-22T00:26:33.700Z,5.11
2023-02-22T00:27:33.682Z,5.11
2023-02-22T00:28:33.687Z,5.12
2023-02-22T00:29:33.671Z,5.15
2023-02-22T00:30:33.738Z,5.17
2023-02-22T00:31:33.704Z,5.12
2023-02-22T00:32:33.626Z,5.17
2023-02-22T00:33:33.616Z,5.21
2023-02-22T00:34:33.585Z,5.26
2023-02-22T00:35:33.575Z,5.25
2023-02-22T00:36:33.561Z,5.26
2023-02-22T00:37:33.557Z,5.20
2023-02-22T00:38:33.572Z,5.20
2023-02-22T00:39:33.522Z,5.25
2023-02-22T00:40:33.512Z,5.20
2023-02-22T00:41:33.528Z,5.15
2023-02-22T00:42:33.492Z,5.18
2023-02-22T00:43:33.501Z,5.23
2023-02-22T00:44:33.460Z,5.28
2023-02-22T00:45:33.531Z,5.30
2023-02-22T00:46:33.454Z,5.28
2023-02-22T00:47:33.421Z,5.32
2023-02-22T00:48:33.445Z,5.33
2023-02-22T00:49:33.396Z,5.33
2023-02-22T00:50:33.376Z,5.33
2023-02-22T00:51:33.367Z,5.33
2023-02-22T00:52:33.351Z,5.29
2023-02-22T00:53:33.334Z,5.32
2023-02-22T00:54:33.345Z,5.30
2023-02-22T00:55:33.335Z,5.41
2023-02-22T00:56:33.303Z,5.43
2023-02-22T00:57:33.292Z,5.43
2023-02-22T00:58:33.297Z,5.46
2023-02-22T00:59:33.282Z,5.41
2023-02-22T01:00:33.243Z,5.44
2023-02-22T01:01:33.372Z,5.48
2023-02-22T01:02:33.240Z,5.56
2023-02-22T01:03:33.212Z,5.57
2023-02-22T01:04:33.209Z,5.57
2023-02-22T01:05:33.180Z,5.62
2023-02-22T01:06:33.178Z,5.62
2023-02-22T01:07:33.160Z,5.57
2023-02-22T01:08:33.139Z,5.64
2023-02-22T01:09:33.151Z,5.53
2023-02-22T01:10:33.115Z,5.57
2023-02-22T01:11:33.114Z,5.53
2023-02-22T01:12:33.090Z,5.54
2023-02-22T01:13:33.076Z,5.50
2023-02-22T01:14:33.081Z,5.32
2023-02-22T01:15:33.050Z,5.12
2023-02-22T01:16:33.066Z,5.07
2023-02-22T01:17:33.054Z,4.92
2023-02-22T01:18:33.017Z,4.87
2023-02-22T01:19:33.008Z,4.82
2023-02-22T01:20:32.985Z,4.86
2023-02-22T01:21:32.973Z,4.84
2023-02-22T01:22:32.956Z,4.84
2023-02-22T01:23:32.981Z,4.80
2023-02-22T01:24:32.947Z,4.74
2023-02-22T01:25:32.922Z,4.75
2023-02-22T01:26:32.909Z,4.74
2023-02-22T01:27:32.895Z,4.77
2023-02-22T01:28:32.875Z,4.78
2023-02-22T01:29:32.879Z,4.84
2023-02-22T01:30:33.105Z,4.75
2023-02-22T01:31:32.873Z,4.86
2023-02-22T01:32:32.824Z,4.82
2023-02-22T01:33:32.833Z,4.84
2023-02-22T01:34:32.821Z,4.78
2023-02-22T01:35:32.799Z,4.87
2023-02-22T01:36:32.774Z,4.89
2023-02-22T01:37:32.764Z,4.94
2023-02-22T01:38:32.748Z,4.90
2023-02-22T01:39:32.751Z,4.94
2023-02-22T01:40:32.722Z,4.97
2023-02-22T01:41:32.708Z,4.93
2023-02-22T01:42:32.690Z,4.87
2023-02-22T01:43:32.699Z,4.74
2023-02-22T01:44:32.697Z,4.60
2023-02-22T01:45:32.856Z,4.53
2023-02-22T01:46:32.641Z,4.40
2023-02-22T01:47:32.630Z,4.32
2023-02-22T01:48:32.614Z,4.22
2023-02-22T01:49:32.673Z,4.12
2023-02-22T01:50:32.595Z,4.02
2023-02-22T01:51:32.572Z,3.99
2023-02-22T01:52:32.560Z,3.96
2023-02-22T01:53:32.549Z,3.92
2023-02-22T01:54:32.545Z,3.87
2023-02-22T01:55:32.533Z,3.86
2023-02-22T01:56:32.506Z,3.81
2023-02-22T01:57:32.498Z,3.80
2023-02-22T01:58:32.504Z,3.76
2023-02-22T01:59:32.470Z,3.76
2023-02-22T02:00:32.474Z,3.73
2023-02-22T02:01:32.440Z,3.76
2023-02-22T02:02:32.428Z,3.73
2023-02-22T02:03:32.416Z,3.74
2023-02-22T02:04:32.405Z,3.74
2023-02-22T02:05:32.423Z,3.76
2023-02-22T02:06:32.382Z,3.80
2023-02-22T02:07:32.367Z,3.83
2023-02-22T02:08:32.352Z,3.86
2023-02-22T02:09:32.339Z,3.86
2023-02-22T02:10:32.345Z,3.87
2023-02-22T02:11:32.311Z,3.84
2023-02-22T02:12:32.300Z,3.81
2023-02-22T02:13:32.285Z,3.84
2023-02-22T02:14:32.279Z,3.87
2023-02-22T02:15:32.285Z,3.99
2023-02-22T02:16:32.266Z,4.05
2023-02-22T02:17:32.237Z,4.06
2023-02-22T02:18:32.231Z,4.06
2023-02-22T02:19:32.212Z,4.08
2023-02-22T02:20:32.223Z,4.08
2023-02-22T02:21:32.211Z,4.10
2023-02-22T02:22:32.181Z,4.19
2023-02-22T02:23:32.158Z,4.19
2023-02-22T02:24:32.150Z,4.23
2023-02-22T02:25:32.146Z,4.24
2023-02-22T02:26:32.156Z,4.32
2023-02-22T02:27:32.112Z,4.28
2023-02-22T02:28:32.101Z,4.32
2023-02-22T02:29:32.091Z,4.28
2023-02-22T02:30:32.160Z,4.20
2023-02-22T02:31:32.056Z,4.20
2023-02-22T02:32:32.106Z,4.20
2023-02-22T02:33:32.030Z,4.12
2023-02-22T02:34:32.020Z,4.19
2023-02-22T02:35:32.019Z,4.13
2023-02-22T02:36:31.992Z,4.10
2023-02-22T02:37:31.997Z,4.16
2023-02-22T02:38:31.998Z,4.14
2023-02-22T02:39:31.950Z,4.19
2023-02-22T02:40:31.977Z,4.14
2023-02-22T02:41:31.931Z,4.12
2023-02-22T02:42:31.919Z,4.08
2023-02-22T02:43:31.913Z,4.06
2023-02-22T02:44:31.890Z,4.01
2023-02-22T02:45:31.892Z,3.99
2023-02-22T02:46:31.864Z,3.99
2023-02-22T02:47:31.893Z,3.95
2023-02-22T02:48:31.840Z,3.88
2023-02-22T02:49:31.825Z,3.86
2023-02-22T02:50:31.823Z,3.86
2023-02-22T02:51:31.796Z,3.84
2023-02-22T02:52:31.788Z,3.86
2023-02-22T02:53:31.793Z,3.81
2023-02-22T02:54:31.765Z,3.86
2023-02-22T02:55:31.767Z,3.92
2023-02-22T02:56:31.737Z,3.92
2023-02-22T02:57:31.716Z,3.99
2023-02-22T02:58:31.711Z,4.14
2023-02-22T02:59:31.701Z,4.13
2023-02-22T03:00:31.698Z,4.17
2023-02-22T03:01:31.758Z,4.17
2023-02-22T03:02:31.658Z,4.19
2023-02-22T03:03:31.648Z,4.19
2023-02-22T03:04:31.629Z,4.20
2023-02-22T03:05:31.618Z,4.19
2023-02-22T03:06:31.620Z,4.26
2023-02-22T03:07:31.615Z,4.22
2023-02-22T03:08:31.585Z,4.22
2023-02-22T03:09:31.586Z,4.23
2023-02-22T03:10:31.562Z,4.14
2023-02-22T03:11:31.556Z,4.16
2023-02-22T03:12:31.525Z,4.23
2023-02-22T03:13:31.516Z,4.24
2023-02-22T03:14:31.502Z,4.24
2023-02-22T03:15:31.490Z,4.30
2023-02-22T03:16:31.546Z,4.30
2023-02-22T03:17:31.466Z,4.30
2023-02-22T03:18:31.460Z,4.32
2023-02-22T03:19:31.449Z,4.35
2023-02-22T03:20:31.455Z,4.38
2023-02-22T03:21:31.434Z,4.38
2023-02-22T03:22:31.400Z,4.37
2023-02-22T03:23:31.385Z,4.38
2023-02-22T03:24:31.383Z,4.42
2023-02-22T03:25:31.378Z,4.37
2023-02-22T03:26:31.367Z,4.38
2023-02-22T03:27:31.330Z,4.35
2023-02-22T03:28:31.321Z,4.41
2023-02-22T03:29:31.308Z,4.41
2023-02-22T03:30:31.336Z,4.37
2023-02-22T03:31:31.384Z,4.38
2023-02-22T03:32:31.278Z,4.24
2023-02-22T03:33:31.262Z,4.28
2023-02-22T03:34:31.243Z,4.23
2023-02-22T03:35:31.231Z,4.13
2023-02-22T03:36:31.236Z,4.06
2023-02-22T03:37:31.203Z,3.95
2023-02-22T03:38:31.194Z,3.84
2023-02-22T03:39:31.394Z,3.84
2023-02-22T03:40:31.165Z,3.78
2023-02-22T03:41:31.212Z,3.76
2023-02-22T03:42:31.147Z,3.73
2023-02-22T03:43:31.135Z,3.66
2023-02-22T03:44:31.119Z,3.65
2023-02-22T03:45:31.109Z,3.68
2023-02-22T03:46:31.139Z,3.68
2023-02-22T03:47:31.076Z,3.76
2023-02-22T03:48:31.070Z,3.86
2023-02-22T03:49:31.047Z,3.86
2023-02-22T03:50:31.041Z,3.88
2023-02-22T03:51:31.058Z,3.81
2023-02-22T03:52:31.011Z,3.78
2023-02-22T03:53:30.993Z,3.77
2023-02-22T03:54:30.984Z,3.83
2023-02-22T03:55:30.969Z,3.81
2023-02-22T03:56:31.358Z,3.83
2023-02-22T03:57:30.967Z,3.86
2023-02-22T03:58:30.939Z,4.06
2023-02-22T03:59:30.923Z,4.13
2023-02-22T04:00:30.915Z,4.19
2023-02-22T04:01:30.916Z,4.26
2023-02-22T04:02:30.891Z,4.30
2023-02-22T04:03:30.893Z,4.28
2023-02-22T04:04:30.906Z,4.34
2023-02-22T04:05:30.851Z,4.32
2023-02-22T04:06:30.845Z,4.26
2023-02-22T04:07:30.813Z,4.24
2023-02-22T04:08:30.806Z,4.24
2023-02-22T04:09:30.789Z,4.22
2023-02-22T04:10:30.776Z,4.19
2023-02-22T04:11:30.775Z,4.20
2023-02-22T04:12:30.751Z,4.19
2023-02-22T04:13:30.761Z,4.19
2023-02-22T04:14:30.730Z,4.17
2023-02-22T04:15:30.710Z,4.14
2023-02-22T04:16:30.721Z,4.13
2023-02-22T04:17:30.685Z,4.17
2023-02-22T04:18:30.677Z,4.16
2023-02-22T04:19:30.675Z,4.19
2023-02-22T04:20:30.648Z,4.20
2023-02-22T04:21:30.669Z,4.22
2023-02-22T04:22:30.623Z,4.17
2023-02-22T04:23:30.604Z,4.14
2023-02-22T04:24:30.757Z,4.14
2023-02-22T04:25:30.582Z,4.08
2023-02-22T04:26:30.575Z,4.10
2023-02-22T04:27:30.577Z,4.06
2023-02-22T04:28:30.542Z,4.05
2023-02-22T04:29:30.550Z,4.04
2023-02-22T04:30:30.542Z,4.01
2023-02-22T04:31:30.529Z,3.94
2023-02-22T04:32:30.511Z,3.76
2023-02-22T04:33:30.480Z,3.78
2023-02-22T04:34:30.471Z,3.70
2023-02-22T04:35:30.453Z,3.59
2023-02-22T04:36:30.444Z,3.53
2023-02-22T04:37:30.437Z,3.48
2023-02-22T04:38:30.411Z,3.48
2023-02-22T04:39:30.456Z,3.47
2023-02-22T04:40:30.386Z,3.48
2023-02-22T04:41:30.371Z,3.50
2023-02-22T04:42:30.378Z,3.51
2023-02-22T04:43:30.354Z,3.50
2023-02-22T04:44:30.352Z,3.48
2023-02-22T04:45:30.339Z,3.50
2023-02-22T04:46:30.345Z,3.51
2023-02-22T04:47:30.309Z,3.48
2023-02-22T04:48:30.294Z,3.44
2023-02-22T04:49:30.279Z,3.40
2023-02-22T04:50:30.264Z,3.42
2023-02-22T04:51:30.244Z,3.37
2023-02-22T04:52:30.246Z,3.32
2023-02-22T04:53:30.218Z,3.29
2023-02-22T04:54:30.205Z,3.16
2023-02-22T04:55:30.190Z,3.08
2023-02-22T04:56:30.186Z,2.98
2023-02-22T04:57:30.193Z,2.93
2023-02-22T04:58:30.157Z,2.95
2023-02-22T04:59:30.145Z,2.92
2023-02-22T05:00:30.141Z,2.82
2023-02-22T05:01:30.139Z,2.79
2023-02-22T05:02:30.274Z,2.75
2023-02-22T05:03:30.093Z,2.74
2023-02-22T05:04:30.171Z,2.75
2023-02-22T05:05:30.078Z,2.79
2023-02-22T05:06:30.059Z,2.75
2023-02-22T05:07:30.049Z,2.77
2023-02-22T05:08:30.023Z,2.79
2023-02-22T05:09:30.010Z,2.85
2023-02-22T05:10:30.001Z,2.86
2023-02-22T05:11:29.987Z,2.83
2023-02-22T05:12:30.007Z,2.93
2023-02-22T05:13:29.958Z,2.95
2023-02-22T05:14:29.945Z,3.03
2023-02-22T05:15:29.930Z,3.04
2023-02-22T05:16:29.925Z,3.01
2023-02-22T05:17:29.950Z,3.14
2023-02-22T05:18:29.897Z,3.16
2023-02-22T05:19:29.887Z,3.21
2023-02-22T05:20:29.876Z,3.25
2023-02-22T05:21:29.868Z,3.23
2023-02-22T05:22:29.864Z,3.32
2023-02-22T05:23:29.830Z,3.37
2023-02-22T05:24:29.817Z,3.36
2023-02-22T05:25:29.799Z,3.44
2023-02-22T05:26:29.828Z,3.40
2023-02-22T05:27:29.807Z,3.32
2023-02-22T05:28:29.769Z,3.34
2023-02-22T05:29:29.748Z,3.37
2023-02-22T05:30:29.839Z,3.36
2023-02-22T05:31:29.791Z,3.31
2023-02-22T05:32:29.735Z,3.32
2023-02-22T05:33:29.717Z,3.36
2023-02-22T05:34:29.695Z,3.36
2023-02-22T05:35:29.676Z,3.23
2023-02-22T05:36:29.658Z,3.21
2023-02-22T05:37:29.704Z,3.22
2023-02-22T05:38:29.635Z,3.25
2023-02-22T05:39:29.620Z,3.23
2023-02-22T05:40:29.615Z,3.22
2023-02-22T05:41:29.634Z,3.21
2023-02-22T05:42:29.593Z,3.26
2023-02-22T05:43:29.655Z,3.25
2023-02-22T05:44:29.572Z,3.34
2023-02-22T05:45:29.552Z,3.42
2023-02-22T05:46:29.558Z,3.42
2023-02-22T05:47:29.518Z,3.47
2023-02-22T05:48:29.522Z,3.56
2023-02-22T05:49:29.518Z,3.53
2023-02-22T05:50:29.486Z,3.55
2023-02-22T05:51:29.468Z,3.51
2023-02-22T05:52:29.456Z,3.59
2023-02-22T05:53:29.459Z,3.60
2023-02-22T05:54:29.427Z,3.66
2023-02-22T05:55:29.414Z,3.69
2023-02-22T05:56:29.410Z,3.78
2023-02-22T05:57:29.385Z,3.78
2023-02-22T05:58:29.390Z,3.83
2023-02-22T05:59:29.364Z,3.86
2023-02-22T06:00:29.356Z,3.91
2023-02-22T06:01:29.340Z,3.96
2023-02-22T06:02:29.327Z,3.99
2023-02-22T06:03:29.341Z,4.01
2023-02-22T06:04:29.303Z,4.02
2023-02-22T06:05:29.361Z,4.05
2023-02-22T06:06:29.275Z,4.05
2023-02-22T06:07:29.253Z,4.06
2023-02-22T06:08:29.260Z,4.10
2023-02-22T06:09:29.242Z,4.13
2023-02-22T06:10:29.216Z,4.17
2023-02-22T06:11:29.207Z,4.19
2023-02-22T06:12:29.189Z,4.17
2023-02-22T06:13:29.197Z,4.22
2023-02-22T06:14:29.173Z,4.28
2023-02-22T06:15:29.167Z,4.28
2023-02-22T06:16:29.158Z,4.31
2023-02-22T06:17:29.127Z,4.24
2023-02-22T06:18:29.138Z,4.24
2023-02-22T06:19:29.105Z,4.24
2023-02-22T06:20:29.094Z,4.23
2023-02-22T06:21:29.095Z,4.23
2023-02-22T06:22:29.063Z,4.17
2023-02-22T06:23:29.082Z,4.04
2023-02-22T06:24:29.034Z,3.91
2023-02-22T06:25:29.028Z,3.80
2023-02-22T06:26:29.006Z,3.78
2023-02-22T06:27:28.993Z,3.81
2023-02-22T06:28:28.998Z,3.84
2023-02-22T06:29:28.973Z,3.88
2023-02-22T06:30:29.028Z,3.95
2023-02-22T06:31:28.968Z,4.02
2023-02-22T06:32:28.970Z,4.10
2023-02-22T06:33:28.940Z,4.12
2023-02-22T06:34:28.906Z,4.13
2023-02-22T06:35:28.896Z,4.16
2023-02-22T06:36:28.873Z,4.23
2023-02-22T06:37:28.886Z,4.26
2023-02-22T06:38:28.875Z,4.28
2023-02-22T06:39:28.861Z,4.35
2023-02-22T06:40:28.828Z,4.34
2023-02-22T06:41:28.815Z,4.44
2023-02-22T06:42:28.840Z,4.45
2023-02-22T06:43:28.802Z,4.44
2023-02-22T06:44:28.778Z,4.44
2023-02-22T06:45:28.805Z,4.49
2023-02-22T06:46:28.745Z,4.52
2023-02-22T06:47:28.735Z,4.49
2023-02-22T06:48:28.737Z,4.52
2023-02-22T06:49:28.715Z,4.38
2023-02-22T06:50:28.728Z,4.14
2023-02-22T06:51:28.683Z,4.04
2023-02-22T06:52:28.670Z,4.05
2023-02-22T06:53:28.701Z,4.04
2023-02-22T06:54:28.643Z,4.06
2023-02-22T06:55:28.626Z,4.16
2023-02-22T06:56:28.612Z,4.20
2023-02-22T06:57:28.601Z,4.35
2023-02-22T06:58:28.589Z,4.41
2023-02-22T06:59:28.604Z,4.44
2023-02-22T07:00:28.564Z,4.59
2023-02-22T07:01:28.552Z,4.66
2023-02-22T07:02:28.540Z,4.48
2023-02-22T07:03:28.656Z,4.41
2023-02-22T07:04:28.527Z,4.42
2023-02-22T07:05:28.512Z,4.45
2023-02-22T07:06:28.505Z,4.49
2023-02-22T07:07:28.479Z,4.60
2023-02-22T07:08:28.471Z,4.60
2023-02-22T07:09:28.497Z,4.68
2023-02-22T07:10:28.567Z,4.71
2023-02-22T07:11:28.430Z,4.70
2023-02-22T07:12:28.417Z,4.73
2023-02-22T07:13:28.423Z,4.80
2023-02-22T07:14:28.410Z,4.89
2023-02-22T07:15:28.379Z,4.93
2023-02-22T07:16:28.406Z,4.93
2023-02-22T07:17:28.360Z,4.97
2023-02-22T07:18:30.591Z,4.97
2023-02-22T07:19:28.350Z,4.99
2023-02-22T07:20:28.369Z,4.97
2023-02-22T07:21:28.304Z,4.84
2023-02-22T07:22:28.288Z,4.59
2023-02-22T07:23:28.300Z,4.68
2023-02-22T07:24:28.522Z,4.90
2023-02-22T07:25:28.278Z,4.78
2023-02-22T07:26:28.244Z,4.78
2023-02-22T07:27:28.229Z,4.89
2023-02-22T07:28:28.216Z,4.97
2023-02-22T07:29:28.221Z,5.17
2023-02-22T07:30:28.340Z,5.20
2023-02-22T07:31:29.632Z,5.20
2023-02-22T07:32:28.300Z,5.30
2023-02-22T07:33:28.151Z,5.43
2023-02-22T07:34:28.146Z,5.44
2023-02-22T07:35:28.124Z,5.43
2023-02-22T07:36:28.109Z,5.38
2023-02-22T07:37:28.104Z,5.53
2023-02-22T07:38:28.083Z,5.35
2023-02-22T07:39:28.083Z,5.30
2023-02-22T07:40:28.145Z,5.33
2023-02-22T07:41:28.064Z,5.35
2023-02-22T07:42:28.029Z,5.36
2023-02-22T07:43:28.038Z,5.38
2023-02-22T07:44:28.031Z,5.43
2023-02-22T07:45:28.011Z,5.25
2023-02-22T07:46:27.977Z,5.23
2023-02-22T07:47:27.967Z,5.32
2023-02-22T07:48:27.946Z,5.46
2023-02-22T07:49:27.956Z,5.41
2023-02-22T07:50:28.036Z,5.35
2023-02-22T07:51:27.920Z,5.35
2023-02-22T07:52:27.903Z,5.44
2023-02-22T07:53:28.917Z,5.73
2023-02-22T07:54:27.888Z,6.02
2023-02-22T07:55:27.859Z,6.05
2023-02-22T07:56:27.844Z,6.12
2023-02-22T07:57:27.851Z,6.27
2023-02-22T07:58:27.836Z,6.38
2023-02-22T07:59:27.802Z,6.42
2023-02-22T08:00:27.813Z,6.42
2023-02-22T08:01:27.784Z,6.52
2023-02-22T08:02:27.788Z,6.39
2023-02-22T08:03:27.858Z,6.11
2023-02-22T08:04:27.745Z,5.94
2023-02-22T08:05:27.740Z,6.05
2023-02-22T08:06:27.715Z,6.33
2023-02-22T08:07:27.708Z,6.54
2023-02-22T08:08:27.683Z,6.52
2023-02-22T08:09:27.725Z,6.44
2023-02-22T08:10:27.671Z,6.56
2023-02-22T08:11:27.650Z,6.77
2023-02-22T08:12:27.631Z,7.00
2023-02-22T08:13:27.646Z,7.29
2023-02-22T08:14:27.621Z,7.40
2023-02-22T08:15:27.605Z,7.45
2023-02-22T08:16:27.579Z,7.45
2023-02-22T08:17:27.569Z,7.40
2023-02-22T08:18:27.552Z,7.33
2023-02-22T08:19:27.537Z,6.97
2023-02-22T08:20:27.538Z,6.78
2023-02-22T08:21:27.518Z,6.72
2023-02-22T08:22:27.508Z,6.56
2023-02-22T08:23:27.490Z,6.54
2023-02-22T08:24:27.474Z,6.59
2023-02-22T08:25:27.487Z,6.57
2023-02-22T08:26:27.450Z,6.49
2023-02-22T08:27:27.497Z,6.41
2023-02-22T08:28:27.420Z,6.36
2023-02-22T08:29:27.431Z,6.41
2023-02-22T08:30:27.442Z,6.48
2023-02-22T08:31:27.456Z,6.54
2023-02-22T08:32:27.637Z,6.69
2023-02-22T08:33:27.477Z,6.75
2023-02-22T08:34:27.347Z,6.79
2023-02-22T08:35:27.344Z,6.81
2023-02-22T08:36:27.316Z,6.79
2023-02-22T08:37:27.303Z,6.82
2023-02-22T08:38:27.307Z,6.81
2023-02-22T08:39:27.281Z,6.81
2023-02-22T08:40:27.274Z,6.72
2023-02-22T08:41:27.250Z,6.45
2023-02-22T08:42:27.236Z,6.26
2023-02-22T08:43:27.226Z,6.07
2023-02-22T08:44:27.208Z,5.97
2023-02-22T08:45:27.230Z,6.02
2023-02-22T08:46:27.183Z,6.04
2023-02-22T08:47:27.196Z,6.28
2023-02-22T08:48:27.152Z,6.44
2023-02-22T08:49:27.146Z,6.59
2023-02-22T08:50:27.138Z,6.63
2023-02-22T08:51:27.879Z,6.66
2023-02-22T08:52:27.099Z,6.63
2023-02-22T08:53:27.091Z,6.60
2023-02-22T08:54:27.069Z,6.70
2023-02-22T08:55:27.070Z,6.69
2023-02-22T08:56:27.046Z,6.69
2023-02-22T08:57:27.032Z,6.79
2023-02-22T08:58:27.020Z,6.84
2023-02-22T08:59:27.006Z,6.92
2023-02-22T09:00:27.013Z,7.14
2023-02-22T09:01:32.875Z,7.32
2023-02-22T09:02:27.966Z,7.60
2023-02-22T09:03:26.962Z,7.88
2023-02-22T09:04:26.940Z,8.06
2023-02-22T09:05:27.052Z,8.19
2023-02-22T09:06:26.915Z,8.34
2023-02-22T09:07:26.920Z,8.53
2023-02-22T09:08:26.891Z,8.67
2023-02-22T09:09:26.876Z,8.82
2023-02-22T09:10:26.882Z,8.91
2023-02-22T09:11:26.851Z,8.81
2023-02-22T09:12:26.960Z,8.73
2023-02-22T09:13:26.828Z,8.52
2023-02-22T09:14:26.816Z,8.45
2023-02-22T09:15:26.846Z,8.45
2023-02-22T09:16:26.836Z,8.24
2023-02-22T09:17:26.799Z,8.09
2023-02-22T09:18:30.537Z,7.76
2023-02-22T09:19:26.750Z,7.57
2023-02-22T09:20:26.756Z,7.53
2023-02-22T09:21:26.715Z,7.35
2023-02-22T09:22:26.712Z,7.35
2023-02-22T09:23:26.692Z,7.40
2023-02-22T09:24:26.679Z,7.57
2023-02-22T09:25:26.677Z,7.69
2023-02-22T09:26:26.654Z,7.82
2023-02-22T09:27:26.635Z,7.94
2023-02-22T09:28:27.825Z,8.05
2023-02-22T09:29:26.620Z,8.06
2023-02-22T09:30:26.617Z,8.12
2023-02-22T09:31:26.730Z,8.27
2023-02-22T09:32:26.749Z,8.46
2023-02-22T09:33:26.629Z,8.56
2023-02-22T09:34:26.560Z,8.63
2023-02-22T09:35:26.536Z,8.82
2023-02-22T09:36:26.540Z,8.85
2023-02-22T09:37:26.507Z,8.81
2023-02-22T09:38:26.501Z,8.79
2023-02-22T09:39:26.530Z,8.89
2023-02-22T09:40:26.475Z,9.03
2023-02-22T09:41:26.472Z,9.14
2023-02-22T09:42:26.446Z,9.50
2023-02-22T09:43:26.433Z,9.80
2023-02-22T09:44:26.420Z,10.05
2023-02-22T09:45:26.398Z,10.34
2023-02-22T09:46:26.401Z,10.67
2023-02-22T09:47:26.475Z,11.15
2023-02-22T09:48:26.363Z,11.66
2023-02-22T09:49:26.367Z,12.24
2023-02-22T09:50:26.335Z,12.64
2023-02-22T09:51:26.336Z,12.72
2023-02-22T09:52:26.304Z,13.00
2023-02-22T09:53:26.491Z,13.49
2023-02-22T09:54:26.281Z,13.85
2023-02-22T09:55:26.266Z,14.28
2023-02-22T09:56:26.265Z,14.91
2023-02-22T09:57:26.240Z,15.04
2023-02-22T09:58:26.227Z,15.37
2023-02-22T09:59:26.216Z,15.57
2023-02-22T10:00:26.203Z,15.54
2023-02-22T10:01:26.207Z,15.37
2023-02-22T10:02:26.175Z,15.27
2023-02-22T10:03:26.185Z,15.27
2023-02-22T10:04:26.156Z,15.55
2023-02-22T10:05:26.302Z,15.84
2023-02-22T10:06:26.167Z,16.16
2023-02-22T10:07:26.264Z,16.65
2023-02-22T10:08:26.098Z,17.05
2023-02-22T10:09:26.087Z,17.23
2023-02-22T10:10:26.073Z,17.24
2023-02-22T10:11:26.074Z,17.05
2023-02-22T10:12:26.049Z,17.30
2023-02-22T10:13:26.039Z,17.27
2023-02-22T10:14:26.028Z,17.41
2023-02-22T10:15:26.005Z,17.38
2023-02-22T10:16:26.031Z,16.89
2023-02-22T10:17:25.996Z,16.57
2023-02-22T10:18:25.962Z,16.05
2023-02-22T10:19:25.965Z,15.79
2023-02-22T10:20:25.941Z,15.54
2023-02-22T10:21:25.946Z,15.44
2023-02-22T10:22:25.930Z,15.40
2023-02-22T10:23:25.903Z,15.09
2023-02-22T10:24:25.884Z,14.96
2023-02-22T10:25:25.875Z,14.96
2023-02-22T10:26:25.865Z,14.59
2023-02-22T10:27:25.874Z,14.10
2023-02-22T10:28:25.836Z,14.14
2023-02-22T10:29:25.827Z,14.11
2023-02-22T10:30:25.970Z,14.28
2023-02-22T10:31:25.951Z,14.36
2023-02-22T10:32:25.861Z,14.50
2023-02-22T10:33:25.770Z,14.94
2023-02-22T10:34:25.759Z,15.43
2023-02-22T10:35:25.747Z,16.28
2023-02-22T10:36:25.737Z,16.91
2023-02-22T10:37:25.865Z,17.30
2023-02-22T10:38:25.708Z,17.82
2023-02-22T10:39:25.719Z,18.22
2023-02-22T10:40:25.680Z,18.37
2023-02-22T10:41:25.681Z,18.63
2023-02-22T10:42:25.680Z,18.86
2023-02-22T10:43:25.659Z,18.93
2023-02-22T10:44:25.640Z,19.04
2023-02-22T10:45:25.615Z,19.02
2023-02-22T10:46:25.604Z,18.98
2023-02-22T10:47:25.603Z,18.89
2023-02-22T10:48:25.576Z,18.74
2023-02-22T10:49:25.565Z,17.83
2023-02-22T10:50:25.553Z,17.49
2023-02-22T10:51:25.551Z,17.59
2023-02-22T10:52:25.539Z,17.16
2023-02-22T10:53:25.538Z,17.24
2023-02-22T10:54:25.505Z,17.60
2023-02-22T10:55:25.503Z,17.63
2023-02-22T10:56:25.542Z,17.83
2023-02-22T10:57:25.493Z,18.08
2023-02-22T10:58:25.449Z,18.59
2023-02-22T10:59:25.669Z,19.04
2023-02-22T11:00:25.426Z,18.86
2023-02-22T11:01:25.479Z,18.63
2023-02-22T11:02:25.415Z,18.74
2023-02-22T11:03:25.387Z,18.77
2023-02-22T11:04:25.434Z,18.55
2023-02-22T11:05:25.376Z,18.40
2023-02-22T11:06:25.367Z,18.60
2023-02-22T11:07:25.343Z,18.37
2023-02-22T11:08:25.317Z,18.40
2023-02-22T11:09:25.329Z,18.77
2023-02-22T11:10:25.301Z,18.98
2023-02-22T11:11:25.279Z,18.37
2023-02-22T11:12:25.282Z,18.04
2023-02-22T11:13:25.255Z,17.89
2023-02-22T11:14:25.243Z,18.15
2023-02-22T11:15:25.242Z,18.34
2023-02-22T11:16:25.243Z,18.59
2023-02-22T11:17:25.216Z,18.89
2023-02-22T11:18:25.187Z,18.96
2023-02-22T11:19:25.176Z,18.71
2023-02-22T11:20:25.170Z,17.94
2023-02-22T11:21:25.145Z,17.44
2023-02-22T11:22:25.155Z,17.30
2023-02-22T11:23:25.123Z,17.49
2023-02-22T11:24:25.108Z,18.34
2023-02-22T11:25:25.132Z,18.83
2023-02-22T11:26:25.095Z,18.74
2023-02-22T11:27:25.085Z,18.63
2023-02-22T11:28:25.065Z,19.02
2023-02-22T11:29:25.045Z,19.16
2023-02-22T11:30:25.079Z,19.36
2023-02-22T11:31:25.068Z,19.64
2023-02-22T11:32:25.074Z,19.96
2023-02-22T11:33:25.010Z,20.28
2023-02-22T11:34:24.983Z,20.50
2023-02-22T11:35:24.994Z,20.07
2023-02-22T11:36:24.956Z,19.41
2023-02-22T11:37:24.941Z,19.16
2023-02-22T11:38:24.984Z,19.08
2023-02-22T11:39:24.946Z,19.15
2023-02-22T11:40:24.913Z,18.70
2023-02-22T11:41:24.908Z,18.56
2023-02-22T11:42:24.880Z,18.84
2023-02-22T11:43:24.874Z,19.18
2023-02-22T11:44:24.854Z,19.33
2023-02-22T11:45:24.836Z,19.63
2023-02-22T11:46:24.933Z,19.39
2023-02-22T11:47:24.902Z,19.22
2023-02-22T11:48:24.815Z,19.18
2023-02-22T11:49:24.785Z,19.21
2023-02-22T11:50:24.770Z,19.47
2023-02-22T11:51:24.756Z,19.59
2023-02-22T11:52:27.071Z,19.37
2023-02-22T11:53:24.753Z,19.41
2023-02-22T11:54:24.721Z,18.96
2023-02-22T11:55:41.069Z,18.56
2023-02-22T11:56:36.884Z,18.74
2023-02-22T11:57:24.760Z,18.83
2023-02-22T11:58:24.682Z,19.00
2023-02-22T11:59:24.653Z,19.14
2023-02-22T12:00:24.682Z,19.16
2023-02-22T12:01:24.626Z,19.30
2023-02-22T12:02:24.623Z,19.59
2023-02-22T12:03:26.031Z,19.47
2023-02-22T12:04:24.602Z,19.49
2023-02-22T12:05:24.575Z,19.29
2023-02-22T12:06:24.567Z,19.08
2023-02-22T12:07:24.547Z,19.36
2023-02-22T12:08:24.551Z,19.62
2023-02-22T12:09:24.529Z,19.52
2023-02-22T12:10:24.509Z,19.29
2023-02-22T12:11:24.493Z,19.22
2023-02-22T12:12:24.486Z,19.27
2023-02-22T12:13:24.646Z,19.64
2023-02-22T12:14:24.457Z,19.99
2023-02-22T12:15:24.472Z,20.48
2023-02-22T12:16:24.440Z,20.48
2023-02-22T12:17:24.417Z,20.03
2023-02-22T12:18:24.424Z,19.73
2023-02-22T12:19:24.396Z,19.99
2023-02-22T12:20:24.390Z,20.39
2023-02-22T12:21:24.375Z,20.74
2023-02-22T12:22:24.418Z,20.92
2023-02-22T12:23:24.351Z,20.59
2023-02-22T12:24:24.323Z,20.36
2023-02-22T12:25:24.311Z,20.63
2023-02-22T12:26:24.336Z,20.93
2023-02-22T12:27:24.420Z,21.43
2023-02-22T12:28:25.417Z,21.76
2023-02-22T12:29:24.379Z,22.06
2023-02-22T12:30:24.304Z,22.04
2023-02-22T12:31:24.307Z,21.51
2023-02-22T12:32:24.336Z,21.11
2023-02-22T12:33:24.286Z,21.11
2023-02-22T12:34:24.261Z,20.92
2023-02-22T12:35:24.187Z,21.25
2023-02-22T12:36:24.210Z,21.77
2023-02-22T12:37:24.167Z,21.88
2023-02-22T12:38:24.249Z,21.83
2023-02-22T12:39:24.174Z,21.89
2023-02-22T12:40:24.132Z,21.55
2023-02-22T12:41:24.109Z,21.54
2023-02-22T12:42:24.135Z,21.14
2023-02-22T12:43:24.104Z,20.77
2023-02-22T12:44:24.070Z,20.39
2023-02-22T12:45:24.085Z,20.18
2023-02-22T12:46:24.073Z,19.86
2023-02-22T12:47:24.055Z,20.00
2023-02-22T12:48:24.027Z,20.19
2023-02-22T12:49:24.027Z,20.47
2023-02-22T12:50:24.047Z,20.67
2023-02-22T12:51:23.984Z,20.72
2023-02-22T12:52:23.968Z,20.82
2023-02-22T12:53:23.959Z,20.65
2023-02-22T12:54:23.967Z,20.39
2023-02-22T12:55:23.966Z,19.79
2023-02-22T12:56:23.931Z,19.79
2023-02-22T12:57:23.906Z,19.77
2023-02-22T12:58:23.893Z,20.02
2023-02-22T12:59:23.892Z,20.40
2023-02-22T13:00:23.866Z,20.62
2023-02-22T13:01:23.954Z,20.70
2023-02-22T13:02:23.858Z,20.72
2023-02-22T13:03:23.829Z,20.66
2023-02-22T13:04:23.837Z,20.58
2023-02-22T13:05:23.817Z,20.32
2023-02-22T13:06:23.784Z,20.48
2023-02-22T13:07:23.776Z,20.39
2023-02-22T13:08:23.763Z,20.28
2023-02-22T13:09:23.761Z,20.43
2023-02-22T13:10:23.731Z,20.74
2023-02-22T13:11:23.727Z,20.80